createdAt,value
2023-02-09T00:01:30.746Z,24.70
2023-02-09T00:03:59.337Z,29.40
2023-02-09T00:06:26.789Z,25.30
2023-02-09T00:08:54.026Z,28.70
2023-02-09T00:11:22.135Z,28.60
2023-02-09T00:13:48.978Z,25.38
2023-02-09T00:16:16.703Z,26.35
2023-02-09T00:18:43.477Z,31.08
2023-02-09T00:21:11.876Z,21.42
2023-02-09T00:23:40.964Z,27.02
2023-02-09T00:26:11.704Z,18.67
2023-02-09T00:28:38.726Z,31.33
2023-02-09T00:31:08.143Z,21.95
2023-02-09T00:33:35.251Z,22.25
2023-02-09T00:36:07.691Z,19.70
2023-02-09T00:38:36.027Z,30.02
2023-02-09T00:41:03.511Z,22.00
2023-02-09T00:43:30.494Z,30.08
2023-02-09T00:45:57.288Z,22.77
2023-02-09T00:48:24.086Z,28.42
2023-02-09T00:50:52.325Z,23.23
2023-02-09T00:53:20.557Z,22.65
2023-02-09T00:55:48.166Z,26.65
2023-02-09T00:58:15.043Z,24.75
2023-02-09T01:00:41.866Z,24.27
2023-02-09T01:03:09.814Z,23.65
2023-02-09T01:05:43.930Z,25.50
2023-02-09T01:08:15.035Z,26.52
2023-02-09T01:10:45.326Z,28.77
2023-02-09T01:13:12.436Z,26.70
2023-02-09T01:15:41.457Z,20.23
2023-02-09T01:18:10.980Z,20.48
2023-02-09T01:20:41.177Z,28.83
2023-02-09T01:23:08.582Z,27.48
2023-02-09T01:25:40.243Z,27.67
2023-02-09T01:28:10.848Z,24.90
2023-02-09T01:30:40.007Z,24.05
2023-02-09T01:33:12.726Z,23.10
2023-02-09T01:35:39.603Z,27.33
2023-02-09T01:38:09.548Z,26.98
2023-02-09T01:40:36.282Z,25.30
2023-02-09T01:43:03.416Z,32.72
2023-02-09T01:45:48.610Z,28.77
2023-02-09T01:48:16.124Z,29.40
2023-02-09T01:50:48.011Z,27.35
2023-02-09T01:53:15.812Z,27.17
2023-02-09T01:56:15.582Z,30.55
2023-02-09T01:58:42.437Z,28.48
2023-02-09T02:01:09.374Z,29.25
2023-02-09T02:03:39.285Z,27.08
2023-02-09T02:06:11.021Z,27.45
2023-02-09T02:08:49.427Z,25.10
2023-02-09T02:11:17.373Z,30.30
2023-02-09T02:13:44.579Z,29.20
2023-02-09T02:16:34.761Z,23.05
2023-02-09T02:19:31.503Z,31.10
2023-02-09T02:22:31.964Z,37.75
2023-02-09T02:25:24.678Z,32.60
2023-02-09T02:28:25.243Z,21.88
2023-02-09T02:31:15.045Z,28.80
2023-02-09T02:33:47.770Z,26.75
2023-02-09T02:36:28.468Z,27.30
2023-02-09T02:39:12.055Z,26.33
2023-02-09T02:42:18.248Z,37.05
2023-02-09T02:45:14.639Z,29.73
2023-02-09T02:47:50.808Z,26.80
2023-02-09T02:50:23.817Z,28.85
2023-02-09T02:52:54.225Z,31.05
2023-02-09T02:55:23.198Z,34.88
2023-02-09T02:57:54.756Z,36.03
2023-02-09T03:00:42.304Z,35.00
2023-02-09T03:03:17.808Z,30.67
2023-02-09T03:05:45.190Z,31.52
2023-02-09T03:08:11.942Z,37.63
2023-02-09T03:10:41.563Z,31.63
2023-02-09T03:13:32.038Z,31.42
2023-02-09T03:16:29.366Z,35.42
2023-02-09T03:19:25.112Z,35.53
2023-02-09T03:21:57.615Z,36.20
2023-02-09T03:24:27.527Z,29.75
2023-02-09T03:27:21.604Z,33.22
2023-02-09T03:29:52.576Z,29.10
2023-02-09T03:32:20.648Z,37.50
2023-02-09T03:34:47.782Z,39.20
2023-02-09T03:37:14.545Z,41.60
2023-02-09T03:39:41.343Z,39.70
2023-02-09T03:42:08.335Z,33.22
2023-02-09T03:44:35.217Z,36.35
2023-02-09T03:47:05.010Z,31.83
2023-02-09T03:49:36.885Z,35.28
2023-02-09T03:52:04.184Z,37.03
2023-02-09T03:54:32.788Z,40.72
2023-02-09T03:57:00.592Z,40.53
2023-02-09T03:59:28.516Z,35.83
2023-02-09T04:01:58.045Z,36.47
2023-02-09T04:04:25.695Z,42.15
2023-02-09T04:06:53.149Z,34.95
2023-02-09T04:09:20.575Z,39.35
2023-02-09T04:11:47.445Z,45.75
2023-02-09T04:14:14.749Z,27.05
2023-02-09T04:16:41.884Z,38.15
2023-02-09T04:19:09.730Z,35.80
2023-02-09T04:21:37.892Z,38.90
2023-02-09T04:24:05.813Z,36.10
2023-02-09T04:26:32.985Z,35.40
2023-02-09T04:28:59.666Z,40.08
2023-02-09T04:31:26.529Z,33.63
2023-02-09T04:33:53.424Z,34.58
2023-02-09T04:36:21.043Z,34.65
2023-02-09T04:38:47.838Z,37.10
2023-02-09T04:41:14.542Z,34.00
2023-02-09T04:43:41.330Z,37.92
2023-02-09T04:46:15.665Z,41.13
2023-02-09T04:48:43.015Z,33.42
2023-02-09T04:51:10.159Z,37.50
2023-02-09T04:53:37.425Z,34.95
2023-02-09T04:56:04.562Z,30.60
2023-02-09T04:58:49.925Z,31.60
2023-02-09T05:01:28.200Z,34.60
2023-02-09T05:03:55.058Z,28.88
2023-02-09T05:06:22.112Z,29.05
2023-02-09T05:08:49.256Z,27.63
2023-02-09T05:11:16.096Z,31.13
2023-02-09T05:13:43.361Z,25.85
2023-02-09T05:16:18.542Z,29.25
2023-02-09T05:18:51.069Z,33.13
2023-02-09T05:21:18.068Z,30.58
2023-02-09T05:23:48.080Z,22.65
2023-02-09T05:26:14.770Z,30.65
2023-02-09T05:28:42.560Z,30.52
2023-02-09T05:31:13.823Z,28.80
2023-02-09T05:33:41.689Z,26.33
2023-02-09T05:36:09.750Z,23.88
2023-02-09T05:38:40.288Z,29.27
2023-02-09T05:41:09.086Z,25.98
2023-02-09T05:43:39.804Z,31.80
2023-02-09T05:46:10.522Z,19.45
2023-02-09T05:48:40.898Z,23.50
2023-02-09T05:51:07.729Z,24.73
2023-02-09T05:53:35.727Z,22.65
2023-02-09T05:56:05.835Z,19.80
2023-02-09T05:58:32.618Z,19.38
2023-02-09T06:01:06.071Z,23.13
2023-02-09T06:03:41.641Z,20.85
2023-02-09T06:06:08.759Z,23.23
2023-02-09T06:08:35.668Z,23.70
2023-02-09T06:11:04.212Z,19.38
2023-02-09T06:13:31.060Z,33.28
2023-02-09T06:16:02.330Z,28.25
2023-02-09T06:18:32.477Z,23.58
2023-02-09T06:20:59.757Z,28.58
2023-02-09T06:23:30.225Z,20.70
2023-02-09T06:26:00.502Z,31.23
2023-02-09T06:28:30.824Z,23.40
2023-02-09T06:31:01.226Z,26.23
2023-02-09T06:33:31.475Z,20.75
2023-02-09T06:35:58.375Z,20.02
2023-02-09T06:38:25.265Z,23.55
2023-02-09T06:40:55.521Z,23.52
2023-02-09T06:43:22.418Z,25.25
2023-02-09T06:45:49.302Z,17.58
2023-02-09T06:48:20.276Z,23.83
2023-02-09T06:50:47.524Z,23.98
2023-02-09T06:53:17.177Z,22.20
2023-02-09T06:55:47.384Z,21.38
2023-02-09T06:58:15.380Z,22.83
2023-02-09T07:00:46.361Z,21.10
2023-02-09T07:03:22.399Z,26.02
2023-02-09T07:05:52.733Z,18.05
2023-02-09T07:08:19.452Z,24.65
2023-02-09T07:10:47.656Z,23.15
2023-02-09T07:13:14.523Z,21.27
2023-02-09T07:15:44.973Z,22.25
2023-02-09T07:18:14.519Z,17.90
2023-02-09T07:20:43.690Z,22.92
2023-02-09T07:23:14.306Z,22.50
2023-02-09T07:25:41.052Z,29.10
2023-02-09T07:28:11.283Z,22.90
2023-02-09T07:30:41.162Z,23.40
2023-02-09T07:33:11.531Z,23.05
2023-02-09T07:35:43.549Z,27.17
2023-02-09T07:38:11.026Z,23.13
2023-02-09T07:40:46.448Z,19.23
2023-02-09T07:43:17.694Z,21.63
2023-02-09T07:45:47.477Z,27.80
2023-02-09T07:48:14.562Z,26.30
2023-02-09T07:50:44.816Z,30.95
2023-02-09T07:53:14.934Z,24.00
2023-02-09T07:55:41.669Z,31.65
2023-02-09T07:58:08.385Z,24.52
2023-02-09T08:00:35.199Z,24.58
2023-02-09T08:03:09.582Z,27.33
2023-02-09T08:05:45.928Z,25.40
2023-02-09T08:08:13.100Z,25.42
2023-02-09T08:10:41.718Z,27.75
2023-02-09T08:13:12.503Z,30.17
2023-02-09T08:15:48.612Z,29.38
2023-02-09T08:18:26.098Z,37.83
2023-02-09T08:20:55.190Z,28.70
2023-02-09T08:23:35.150Z,31.52
2023-02-09T08:26:09.963Z,33.78
2023-02-09T08:28:44.113Z,30.38
2023-02-09T08:31:19.460Z,30.02
2023-02-09T08:33:51.812Z,23.60
2023-02-09T08:36:20.495Z,32.08
2023-02-09T08:38:53.283Z,31.92
2023-02-09T08:41:20.089Z,28.23
2023-02-09T08:43:51.719Z,26.25
2023-02-09T08:46:19.174Z,28.10
2023-02-09T08:48:47.318Z,34.28
2023-02-09T08:51:15.587Z,26.55
2023-02-09T08:53:52.255Z,39.78
2023-02-09T08:56:20.402Z,28.42
2023-02-09T08:58:47.527Z,35.38
2023-02-09T09:01:14.513Z,32.42
2023-02-09T09:03:44.436Z,32.67
2023-02-09T09:06:12.351Z,37.85
2023-02-09T09:08:40.681Z,34.63
2023-02-09T09:11:13.320Z,34.40
2023-02-09T09:13:41.606Z,40.67
2023-02-09T09:16:22.894Z,38.58
2023-02-09T09:18:52.427Z,35.55
2023-02-09T09:21:25.686Z,34.28
2023-02-09T09:23:52.613Z,34.30
2023-02-09T09:26:19.507Z,32.47
2023-02-09T09:28:50.390Z,39.40
2023-02-09T09:31:18.771Z,36.42
2023-02-09T09:33:45.890Z,36.30
2023-02-09T09:36:14.747Z,42.65
2023-02-09T09:38:43.022Z,41.70
2023-02-09T09:41:40.890Z,35.67
2023-02-09T09:44:17.671Z,41.03
2023-02-09T09:46:48.293Z,37.38
2023-02-09T09:49:27.144Z,30.25
2023-02-09T09:52:23.495Z,37.63
2023-02-09T09:54:53.999Z,35.97
2023-02-09T09:57:27.533Z,33.30
2023-02-09T09:59:55.888Z,40.10
2023-02-09T10:02:26.706Z,37.25
2023-02-09T10:04:56.303Z,33.13
2023-02-09T10:07:32.217Z,40.78
2023-02-09T10:10:21.693Z,46.22
2023-02-09T10:12:50.945Z,36.38
2023-02-09T10:15:35.544Z,34.28
2023-02-09T10:18:02.865Z,37.75
2023-02-09T10:20:51.234Z,42.70
2023-02-09T10:23:36.448Z,49.17
2023-02-09T10:26:03.362Z,43.60
2023-02-09T10:28:37.765Z,36.97
2023-02-09T10:31:15.320Z,44.75
2023-02-09T10:33:49.779Z,35.65
2023-02-09T10:36:27.422Z,35.95
2023-02-09T10:39:11.831Z,41.20
2023-02-09T10:41:42.106Z,44.03
2023-02-09T10:44:25.791Z,31.55
2023-02-09T10:47:29.305Z,45.67
2023-02-09T10:50:11.455Z,36.53
2023-02-09T10:53:00.853Z,30.58
2023-02-09T10:55:34.098Z,41.63
2023-02-09T10:58:21.341Z,37.13
2023-02-09T11:00:53.951Z,37.83
2023-02-09T11:03:25.331Z,49.67
2023-02-09T11:08:57.057Z,39.70
2023-02-09T11:11:32.504Z,40.90
2023-02-09T11:14:00.174Z,38.30
2023-02-09T11:16:44.631Z,33.22
2023-02-09T11:19:26.034Z,32.67
2023-02-09T11:22:08.363Z,30.83
2023-02-09T11:25:10.196Z,42.20
2023-02-09T11:30:31.036Z,34.80
2023-02-09T11:33:26.891Z,32.83
2023-02-09T11:36:19.679Z,32.55
2023-02-09T11:39:01.682Z,29.65
2023-02-09T11:42:13.671Z,42.72
2023-02-09T11:48:00.631Z,29.45
2023-02-09T11:51:06.238Z,35.22
2023-02-09T11:54:07.535Z,34.22
2023-02-09T11:56:50.204Z,40.78
2023-02-09T11:59:30.275Z,29.90
2023-02-09T12:02:13.957Z,34.83
2023-02-09T12:05:01.176Z,31.20
2023-02-09T12:07:36.923Z,31.88
2023-02-09T12:10:31.465Z,42.92
2023-02-09T12:13:13.126Z,38.38
2023-02-09T12:15:46.932Z,23.85
2023-02-09T12:18:21.059Z,34.00
2023-02-09T12:21:13.874Z,31.42
2023-02-09T12:23:47.585Z,37.28
2023-02-09T12:26:21.092Z,33.13
2023-02-09T12:29:32.954Z,36.83
2023-02-09T12:32:06.439Z,28.20
2023-02-09T12:34:51.364Z,36.10
2023-02-09T12:37:28.323Z,21.50
2023-02-09T12:40:21.137Z,27.17
2023-02-09T12:42:53.882Z,19.27
2023-02-09T12:45:32.745Z,27.95
2023-02-09T12:48:08.396Z,25.42
2023-02-09T12:50:44.075Z,24.17
2023-02-09T12:53:24.428Z,37.42
2023-02-09T12:56:09.618Z,23.98
2023-02-09T12:58:45.251Z,24.30
2023-02-09T13:01:16.415Z,24.67
2023-02-09T13:03:56.903Z,29.58
2023-02-09T13:06:32.489Z,25.23
2023-02-09T13:09:03.057Z,30.17
2023-02-09T13:11:40.714Z,26.33
2023-02-09T13:14:11.616Z,29.23
2023-02-09T13:17:08.636Z,24.95
2023-02-09T13:20:07.284Z,31.02
2023-02-09T13:22:52.620Z,25.95
2023-02-09T13:25:36.301Z,25.08
2023-02-09T13:28:18.730Z,32.65
2023-02-09T13:30:46.643Z,38.08
2023-02-09T13:33:25.456Z,35.15
2023-02-09T13:36:01.306Z,25.02
2023-02-09T13:38:32.738Z,24.17
2023-02-09T13:40:59.974Z,23.40
2023-02-09T13:43:35.721Z,34.00
2023-02-09T13:46:03.002Z,31.08
2023-02-09T13:48:36.228Z,36.47
2023-02-09T13:51:13.634Z,34.72
2023-02-09T13:53:40.307Z,32.03
2023-02-09T13:56:11.724Z,39.25
2023-02-09T14:01:12.776Z,22.95
2023-02-09T14:03:57.964Z,33.80
2023-02-09T14:06:40.393Z,30.08
2023-02-09T14:09:14.756Z,34.80
2023-02-09T14:11:43.129Z,20.90
2023-02-09T14:14:22.192Z,34.58
2023-02-09T14:17:22.903Z,34.33
2023-02-09T14:19:52.242Z,24.33
2023-02-09T14:22:37.578Z,32.75
2023-02-09T14:25:13.432Z,23.55
2023-02-09T14:27:41.683Z,28.55
2023-02-09T14:30:36.283Z,22.38
2023-02-09T14:33:03.982Z,29.73
2023-02-09T14:35:36.126Z,21.48
2023-02-09T14:38:03.617Z,25.52
2023-02-09T14:40:37.016Z,25.20
2023-02-09T14:43:13.663Z,32.63
2023-02-09T14:45:49.374Z,25.70
2023-02-09T14:48:24.817Z,20.00
2023-02-09T14:51:09.880Z,27.42
2023-02-09T14:53:36.957Z,22.80
2023-02-09T14:56:03.805Z,16.20
2023-02-09T14:58:32.436Z,22.77
2023-02-09T15:01:02.435Z,26.88
2023-02-09T15:03:29.328Z,22.35
2023-02-09T15:05:59.029Z,17.42
2023-02-09T15:08:28.516Z,27.58
2023-02-09T15:10:59.429Z,23.92
2023-02-09T15:13:29.033Z,27.48
2023-02-09T15:15:55.770Z,24.70
2023-02-09T15:18:27.415Z,19.73
2023-02-09T15:20:54.168Z,22.75
2023-02-09T15:23:20.857Z,21.80
2023-02-09T15:25:48.135Z,23.92
2023-02-09T15:28:27.894Z,19.42
2023-02-09T15:30:56.274Z,22.63
2023-02-09T15:33:23.427Z,18.52
2023-02-09T15:35:50.290Z,19.77
2023-02-09T15:38:18.416Z,19.20
2023-02-09T15:41:05.677Z,16.77
2023-02-09T15:43:51.029Z,13.48
2023-02-09T15:46:36.635Z,13.98
2023-02-09T15:49:05.472Z,20.83
2023-02-09T15:51:36.656Z,18.95
2023-02-09T15:54:09.055Z,16.63
2023-02-09T15:56:36.573Z,16.75
2023-02-09T15:59:05.573Z,13.02
2023-02-09T16:01:33.986Z,23.00
2023-02-09T16:04:13.432Z,14.52
2023-02-09T16:06:47.141Z,30.27
2023-02-09T16:09:22.634Z,20.38
2023-02-09T16:11:49.405Z,13.75
2023-02-09T16:14:21.815Z,23.42
2023-02-09T16:16:49.717Z,19.75
2023-02-09T16:19:17.382Z,13.52
2023-02-09T16:21:48.912Z,13.15
2023-02-09T16:24:39.663Z,24.35
2023-02-09T16:27:23.207Z,24.10
2023-02-09T16:29:50.080Z,20.63
2023-02-09T16:32:18.954Z,16.33
2023-02-09T16:34:46.077Z,22.73
2023-02-09T16:37:18.106Z,21.48
2023-02-09T16:39:45.800Z,23.77
2023-02-09T16:42:14.779Z,22.80
2023-02-09T16:44:42.299Z,25.58
2023-02-09T16:47:22.466Z,22.48
2023-02-09T16:49:59.060Z,22.27
2023-02-09T16:52:27.133Z,18.73
2023-02-09T16:54:58.051Z,24.70
2023-02-09T16:57:27.457Z,19.05
2023-02-09T16:59:54.724Z,18.33
2023-02-09T17:02:48.516Z,25.58
2023-02-09T17:05:32.687Z,18.83
2023-02-09T17:08:17.202Z,15.13
2023-02-09T17:10:44.832Z,26.00
2023-02-09T17:13:12.236Z,18.90
2023-02-09T17:15:49.258Z,19.52
2023-02-09T17:18:22.529Z,19.52
2023-02-09T17:20:58.871Z,22.17
2023-02-09T17:23:27.352Z,24.60
2023-02-09T17:25:55.266Z,20.67
2023-02-09T17:28:27.081Z,22.75
2023-02-09T17:30:58.476Z,18.20
2023-02-09T17:33:28.467Z,23.70
2023-02-09T17:38:44.742Z,26.92
2023-02-09T17:41:20.580Z,19.73
2023-02-09T17:43:49.590Z,24.05
2023-02-09T17:46:21.252Z,20.05
2023-02-09T17:48:48.440Z,16.67
2023-02-09T17:51:21.757Z,28.67
2023-02-09T17:53:49.066Z,22.85
2023-02-09T17:56:16.866Z,19.95
2023-02-09T17:58:44.552Z,25.52
2023-02-09T18:01:29.305Z,24.55
2023-02-09T18:04:00.822Z,21.40
2023-02-09T18:09:02.944Z,19.75
2023-02-09T18:11:45.048Z,26.33
2023-02-09T18:14:15.937Z,23.95
2023-02-09T18:16:43.870Z,25.00
2023-02-09T18:19:11.831Z,26.98
2023-02-09T18:21:46.242Z,27.17
2023-02-09T18:24:13.880Z,28.05
2023-02-09T18:26:40.600Z,18.55
2023-02-09T18:29:07.405Z,20.55
2023-02-09T18:31:34.581Z,18.98
2023-02-09T18:34:02.426Z,25.88
2023-02-09T18:36:29.870Z,27.25
2023-02-09T18:38:56.657Z,24.17
2023-02-09T18:41:23.756Z,17.90
2023-02-09T18:43:52.211Z,23.42
2023-02-09T18:46:20.813Z,20.23
2023-02-09T18:48:47.945Z,25.02
2023-02-09T18:51:16.183Z,20.67
2023-02-09T18:53:43.161Z,17.05
2023-02-09T18:56:18.245Z,23.90
2023-02-09T18:58:45.401Z,26.05
2023-02-09T19:01:13.336Z,24.75
2023-02-09T19:03:40.170Z,17.98
2023-02-09T19:06:11.287Z,21.75
2023-02-09T19:08:41.404Z,34.53
2023-02-09T19:11:13.421Z,26.80
2023-02-09T19:13:40.255Z,21.35
2023-02-09T19:16:11.838Z,18.83
2023-02-09T19:18:39.513Z,22.15
2023-02-09T19:21:07.254Z,23.80
2023-02-09T19:23:34.285Z,31.08
2023-02-09T19:26:03.029Z,29.67
2023-02-09T19:28:30.088Z,24.50
2023-02-09T19:30:59.549Z,24.10
2023-02-09T19:33:26.329Z,28.52
2023-02-09T19:36:00.686Z,22.38
2023-02-09T19:38:33.929Z,33.05
2023-02-09T19:41:10.791Z,26.63
2023-02-09T19:43:43.151Z,26.27
2023-02-09T19:46:10.332Z,38.17
2023-02-09T19:48:40.131Z,28.80
2023-02-09T19:51:07.844Z,21.45
2023-02-09T19:53:34.901Z,27.17
2023-02-09T19:56:01.680Z,27.42
2023-02-09T19:58:28.722Z,27.60
2023-02-09T20:00:56.171Z,18.58
2023-02-09T20:03:23.937Z,20.83
2023-02-09T20:05:51.121Z,18.20
2023-02-09T20:08:19.671Z,25.35
2023-02-09T20:10:50.048Z,19.23
2023-02-09T20:13:20.244Z,13.37
2023-02-09T20:15:47.167Z,19.75
2023-02-09T20:18:17.753Z,11.77
2023-02-09T20:20:48.442Z,16.55
2023-02-09T20:23:15.645Z,15.80
2023-02-09T20:25:43.753Z,14.38
2023-02-09T20:28:13.582Z,13.45
2023-02-09T20:30:42.700Z,15.85
2023-02-09T20:33:10.461Z,15.38
2023-02-09T20:35:44.482Z,22.83
2023-02-09T20:38:12.227Z,17.48
2023-02-09T20:40:42.911Z,10.93
2023-02-09T20:43:30.346Z,9.77
2023-02-09T20:46:15.875Z,17.98
2023-02-09T20:48:46.070Z,17.00
2023-02-09T20:51:12.792Z,14.55
2023-02-09T20:53:39.590Z,17.25
2023-02-09T20:56:06.817Z,18.02
2023-02-09T20:58:33.582Z,20.50
2023-02-09T21:01:00.514Z,14.88
2023-02-09T21:03:27.420Z,35.25
2023-02-09T21:05:54.270Z,19.65
2023-02-09T21:08:22.798Z,12.70
2023-02-09T21:10:57.660Z,20.92
2023-02-09T21:13:25.041Z,20.70
2023-02-09T21:15:51.834Z,16.27
2023-02-09T21:18:21.383Z,28.80
2023-02-09T21:20:49.108Z,26.13
2023-02-09T21:23:17.230Z,26.60
2023-02-09T21:25:44.665Z,24.58
2023-02-09T21:28:17.616Z,17.83
2023-02-09T21:30:44.703Z,20.08
2023-02-09T21:33:11.447Z,23.38
2023-02-09T21:35:41.366Z,12.10
2023-02-09T21:38:08.222Z,25.67
2023-02-09T21:40:35.161Z,14.90
2023-02-09T21:43:02.071Z,14.40
2023-02-09T21:45:28.941Z,15.80
2023-02-09T21:47:55.837Z,15.90
2023-02-09T21:50:22.544Z,20.15
2023-02-09T21:52:49.960Z,22.98
2023-02-09T21:55:17.430Z,14.80
2023-02-09T21:57:44.129Z,16.42
2023-02-09T22:00:11.558Z,17.23
2023-02-09T22:02:38.485Z,8.30
2023-02-09T22:05:05.842Z,12.45
2023-02-09T22:07:34.888Z,15.95
2023-02-09T22:10:02.405Z,11.27
2023-02-09T22:12:29.543Z,16.42
2023-02-09T22:14:56.247Z,18.52
2023-02-09T22:17:26.331Z,11.77
2023-02-09T22:19:53.428Z,7.15
2023-02-09T22:22:25.192Z,11.60
2023-02-09T22:24:52.418Z,12.73
2023-02-09T22:27:23.166Z,16.33
2023-02-09T22:29:49.980Z,18.17
2023-02-09T22:32:20.728Z,6.05
2023-02-09T22:34:47.722Z,16.77
2023-02-09T22:37:14.524Z,11.32
2023-02-09T22:39:45.068Z,11.82
2023-02-09T22:42:11.916Z,15.73
2023-02-09T22:44:42.300Z,9.63
2023-02-09T22:47:12.533Z,12.65
2023-02-09T22:49:45.692Z,4.43
2023-02-09T22:52:12.934Z,11.27
2023-02-09T22:54:43.332Z,9.10
2023-02-09T22:57:10.185Z,15.32
2023-02-09T22:59:37.071Z,9.00
2023-02-09T23:02:12.386Z,14.32
2023-02-09T23:04:43.000Z,10.77
2023-02-09T23:07:09.941Z,11.98
2023-02-09T23:09:37.453Z,11.20
2023-02-09T23:12:10.720Z,8.70
2023-02-09T23:14:41.009Z,10.73
2023-02-09T23:17:11.318Z,12.63
2023-02-09T23:19:41.783Z,14.70
2023-02-09T23:22:08.693Z,12.67
2023-02-09T23:24:39.060Z,12.02
2023-02-09T23:27:05.884Z,12.77
2023-02-09T23:29:32.764Z,9.52
2023-02-09T23:31:59.475Z,11.23
2023-02-09T23:34:26.254Z,11.90
2023-02-09T23:36:53.013Z,8.65
2023-02-09T23:39:22.406Z,13.70
2023-02-09T23:41:49.619Z,10.50
2023-02-09T23:44:16.432Z,7.25
2023-02-09T23:46:43.299Z,8.07
2023-02-09T23:49:10.849Z,5.55
2023-02-09T23:51:37.760Z,13.48
2023-02-09T23:54:06.993Z,7.88
2023-02-09T23:56:37.200Z,10.25
2023-02-09T23:59:06.960Z,14.05
